sensor_id;sensor_type;location;lat;lon;timestamp;P1;durP1;ratioP1;P2;durP2;ratioP2
10617;SDS011;5356;43.526;26.534;2023-01-19T00:02:25;14.30;;;3.38;;
10617;SDS011;5356;43.526;26.534;2023-01-19T00:04:51;18.42;;;2.90;;
10617;SDS011;5356;43.526;26.534;2023-01-19T00:07:16;10.93;;;2.92;;
10617;SDS011;5356;43.526;26.534;2023-01-19T00:09:42;11.20;;;3.10;;
10617;SDS011;5356;43.526;26.534;2023-01-19T00:12:08;12.43;;;2.85;;
10617;SDS011;5356;43.526;26.534;2023-01-19T00:14:33;18.42;;;3.10;;
10617;SDS011;5356;43.526;26.534;2023-01-19T00:16:59;12.25;;;3.75;;
10617;SDS011;5356;43.526;26.534;2023-01-19T00:19:26;17.45;;;3.97;;
10617;SDS011;5356;43.526;26.534;2023-01-19T00:21:52;11.57;;;3.17;;
10617;SDS011;5356;43.526;26.534;2023-01-19T00:24:18;8.20;;;3.75;;
10617;SDS011;5356;43.526;26.534;2023-01-19T00:26:43;15.00;;;3.33;;
10617;SDS011;5356;43.526;26.534;2023-01-19T00:29:09;9.27;;;3.13;;
10617;SDS011;5356;43.526;26.534;2023-01-19T00:31:35;17.63;;;5.32;;
10617;SDS011;5356;43.526;26.534;2023-01-19T00:34:01;15.35;;;5.05;;
10617;SDS011;5356;43.526;26.534;2023-01-19T00:36:27;16.73;;;4.13;;
10617;SDS011;5356;43.526;26.534;2023-01-19T00:38:52;7.05;;;2.80;;
10617;SDS011;5356;43.526;26.534;2023-01-19T00:41:18;15.43;;;3.42;;
10617;SDS011;5356;43.526;26.534;2023-01-19T00:44:03;14.75;;;4.15;;
10617;SDS011;5356;43.526;26.534;2023-01-19T00:46:29;12.05;;;3.78;;
10617;SDS011;5356;43.526;26.534;2023-01-19T00:48:54;12.35;;;3.88;;
10617;SDS011;5356;43.526;26.534;2023-01-19T00:51:20;15.45;;;4.20;;
10617;SDS011;5356;43.526;26.534;2023-01-19T00:53:45;11.40;;;4.30;;
10617;SDS011;5356;43.526;26.534;2023-01-19T00:56:10;14.20;;;3.60;;
10617;SDS011;5356;43.526;26.534;2023-01-19T00:58:36;20.50;;;3.58;;
10617;SDS011;5356;43.526;26.534;2023-01-19T01:01:01;11.48;;;3.20;;
10617;SDS011;5356;43.526;26.534;2023-01-19T01:03:28;14.90;;;3.60;;
10617;SDS011;5356;43.526;26.534;2023-01-19T01:05:55;16.27;;;3.78;;
10617;SDS011;5356;43.526;26.534;2023-01-19T01:08:20;11.82;;;3.60;;
10617;SDS011;5356;43.526;26.534;2023-01-19T01:10:46;13.10;;;3.00;;
10617;SDS011;5356;43.526;26.534;2023-01-19T01:13:12;12.75;;;3.33;;
10617;SDS011;5356;43.526;26.534;2023-01-19T01:15:37;14.90;;;3.83;;
10617;SDS011;5356;43.526;26.534;2023-01-19T01:18:02;10.85;;;3.33;;
10617;SDS011;5356;43.526;26.534;2023-01-19T01:20:28;13.65;;;3.40;;
10617;SDS011;5356;43.526;26.534;2023-01-19T01:22:55;9.75;;;3.22;;
10617;SDS011;5356;43.526;26.534;2023-01-19T01:25:21;13.68;;;2.88;;
10617;SDS011;5356;43.526;26.534;2023-01-19T01:27:49;15.75;;;3.70;;
10617;SDS011;5356;43.526;26.534;2023-01-19T01:30:14;18.40;;;3.78;;
10617;SDS011;5356;43.526;26.534;2023-01-19T01:32:40;10.80;;;3.50;;
10617;SDS011;5356;43.526;26.534;2023-01-19T01:35:07;11.20;;;3.28;;
10617;SDS011;5356;43.526;26.534;2023-01-19T01:37:33;10.75;;;3.70;;
10617;SDS011;5356;43.526;26.534;2023-01-19T01:39:59;13.10;;;4.07;;
10617;SDS011;5356;43.526;26.534;2023-01-19T01:42:28;14.27;;;3.78;;
10617;SDS011;5356;43.526;26.534;2023-01-19T01:44:56;10.35;;;3.58;;
10617;SDS011;5356;43.526;26.534;2023-01-19T01:47:35;16.20;;;4.07;;
10617;SDS011;5356;43.526;26.534;2023-01-19T01:52:34;10.50;;;2.97;;
10617;SDS011;5356;43.526;26.534;2023-01-19T01:55:05;12.20;;;2.97;;
10617;SDS011;5356;43.526;26.534;2023-01-19T01:57:34;8.15;;;3.33;;
10617;SDS011;5356;43.526;26.534;2023-01-19T02:00:03;10.60;;;3.28;;
10617;SDS011;5356;43.526;26.534;2023-01-19T02:02:30;8.90;;;3.55;;
10617;SDS011;5356;43.526;26.534;2023-01-19T02:05:22;14.85;;;3.90;;
10617;SDS011;5356;43.526;26.534;2023-01-19T02:10:40;11.93;;;3.50;;
10617;SDS011;5356;43.526;26.534;2023-01-19T02:13:25;12.07;;;3.63;;
10617;SDS011;5356;43.526;26.534;2023-01-19T02:15:53;12.43;;;4.13;;
10617;SDS011;5356;43.526;26.534;2023-01-19T02:18:23;10.00;;;3.45;;
10617;SDS011;5356;43.526;26.534;2023-01-19T02:26:06;12.20;;;2.92;;
10617;SDS011;5356;43.526;26.534;2023-01-19T02:28:34;13.10;;;3.83;;
10617;SDS011;5356;43.526;26.534;2023-01-19T02:31:04;11.43;;;3.55;;
10617;SDS011;5356;43.526;26.534;2023-01-19T02:33:30;12.38;;;4.18;;
10617;SDS011;5356;43.526;26.534;2023-01-19T02:35:55;10.88;;;3.33;;
10617;SDS011;5356;43.526;26.534;2023-01-19T02:38:21;13.73;;;3.58;;
10617;SDS011;5356;43.526;26.534;2023-01-19T02:40:52;14.55;;;3.92;;
10617;SDS011;5356;43.526;26.534;2023-01-19T02:43:22;14.75;;;3.75;;
10617;SDS011;5356;43.526;26.534;2023-01-19T02:45:49;13.55;;;3.55;;
10617;SDS011;5356;43.526;26.534;2023-01-19T02:48:15;12.30;;;4.25;;
10617;SDS011;5356;43.526;26.534;2023-01-19T02:50:44;11.63;;;3.70;;
10617;SDS011;5356;43.526;26.534;2023-01-19T02:53:34;14.02;;;3.83;;
10617;SDS011;5356;43.526;26.534;2023-01-19T03:07:13;14.45;;;3.47;;
10617;SDS011;5356;43.526;26.534;2023-01-19T03:09:48;13.80;;;3.67;;
10617;SDS011;5356;43.526;26.534;2023-01-19T03:12:38;19.35;;;4.57;;
10617;SDS011;5356;43.526;26.534;2023-01-19T03:15:18;16.95;;;3.95;;
10617;SDS011;5356;43.526;26.534;2023-01-19T03:17:47;14.25;;;3.28;;
10617;SDS011;5356;43.526;26.534;2023-01-19T03:20:17;12.57;;;3.60;;
10617;SDS011;5356;43.526;26.534;2023-01-19T03:22:47;16.38;;;3.80;;
10617;SDS011;5356;43.526;26.534;2023-01-19T03:25:18;17.75;;;3.88;;
10617;SDS011;5356;43.526;26.534;2023-01-19T03:27:45;10.57;;;3.30;;
10617;SDS011;5356;43.526;26.534;2023-01-19T03:30:14;13.27;;;3.80;;
10617;SDS011;5356;43.526;26.534;2023-01-19T03:32:47;12.30;;;3.38;;
10617;SDS011;5356;43.526;26.534;2023-01-19T03:35:17;11.80;;;3.83;;
10617;SDS011;5356;43.526;26.534;2023-01-19T03:37:46;10.88;;;3.90;;
10617;SDS011;5356;43.526;26.534;2023-01-19T03:40:15;11.00;;;3.60;;
10617;SDS011;5356;43.526;26.534;2023-01-19T03:42:41;9.23;;;3.45;;
10617;SDS011;5356;43.526;26.534;2023-01-19T03:45:08;11.80;;;3.30;;
10617;SDS011;5356;43.526;26.534;2023-01-19T03:47:36;12.73;;;5.20;;
10617;SDS011;5356;43.526;26.534;2023-01-19T03:50:03;15.90;;;3.60;;
10617;SDS011;5356;43.526;26.534;2023-01-19T03:52:34;15.68;;;3.15;;
10617;SDS011;5356;43.526;26.534;2023-01-19T03:55:00;15.63;;;3.72;;
10617;SDS011;5356;43.526;26.534;2023-01-19T03:57:27;15.18;;;3.65;;
10617;SDS011;5356;43.526;26.534;2023-01-19T03:59:53;10.90;;;3.00;;
10617;SDS011;5356;43.526;26.534;2023-01-19T04:02:18;14.63;;;3.53;;
10617;SDS011;5356;43.526;26.534;2023-01-19T04:04:44;16.42;;;4.32;;
10617;SDS011;5356;43.526;26.534;2023-01-19T04:07:09;11.30;;;3.63;;
10617;SDS011;5356;43.526;26.534;2023-01-19T04:09:35;9.63;;;2.88;;
10617;SDS011;5356;43.526;26.534;2023-01-19T04:12:00;12.48;;;3.67;;
10617;SDS011;5356;43.526;26.534;2023-01-19T04:14:27;14.77;;;3.22;;
10617;SDS011;5356;43.526;26.534;2023-01-19T04:16:53;13.15;;;3.13;;
10617;SDS011;5356;43.526;26.534;2023-01-19T04:19:18;14.13;;;3.75;;
10617;SDS011;5356;43.526;26.534;2023-01-19T04:21:44;17.10;;;3.60;;
10617;SDS011;5356;43.526;26.534;2023-01-19T04:24:12;20.67;;;5.45;;
10617;SDS011;5356;43.526;26.534;2023-01-19T04:26:37;13.32;;;2.80;;
10617;SDS011;5356;43.526;26.534;2023-01-19T04:29:03;15.05;;;3.38;;
10617;SDS011;5356;43.526;26.534;2023-01-19T04:31:29;16.63;;;3.30;;
10617;SDS011;5356;43.526;26.534;2023-01-19T04:33:55;12.70;;;3.70;;
10617;SDS011;5356;43.526;26.534;2023-01-19T04:36:20;12.13;;;3.00;;
10617;SDS011;5356;43.526;26.534;2023-01-19T04:38:46;18.45;;;3.42;;
10617;SDS011;5356;43.526;26.534;2023-01-19T04:41:12;12.93;;;3.08;;
10617;SDS011;5356;43.526;26.534;2023-01-19T04:43:38;14.27;;;4.10;;
10617;SDS011;5356;43.526;26.534;2023-01-19T04:46:03;21.35;;;4.72;;
10617;SDS011;5356;43.526;26.534;2023-01-19T04:48:29;23.48;;;5.03;;
10617;SDS011;5356;43.526;26.534;2023-01-19T04:50:54;16.60;;;3.67;;
10617;SDS011;5356;43.526;26.534;2023-01-19T04:53:20;21.50;;;5.93;;
10617;SDS011;5356;43.526;26.534;2023-01-19T04:55:45;75.47;;;26.00;;
10617;SDS011;5356;43.526;26.534;2023-01-19T04:58:11;36.05;;;13.95;;
10617;SDS011;5356;43.526;26.534;2023-01-19T05:00:37;21.73;;;6.78;;
10617;SDS011;5356;43.526;26.534;2023-01-19T05:03:02;15.55;;;4.57;;
10617;SDS011;5356;43.526;26.534;2023-01-19T05:05:28;13.20;;;3.28;;
10617;SDS011;5356;43.526;26.534;2023-01-19T05:07:54;14.35;;;3.72;;
10617;SDS011;5356;43.526;26.534;2023-01-19T05:10:19;18.38;;;4.50;;
10617;SDS011;5356;43.526;26.534;2023-01-19T05:12:45;19.50;;;3.55;;
10617;SDS011;5356;43.526;26.534;2023-01-19T05:15:10;17.73;;;3.72;;
10617;SDS011;5356;43.526;26.534;2023-01-19T05:17:36;34.78;;;15.13;;
10617;SDS011;5356;43.526;26.534;2023-01-19T05:20:02;19.20;;;6.90;;
10617;SDS011;5356;43.526;26.534;2023-01-19T05:22:28;24.20;;;8.90;;
10617;SDS011;5356;43.526;26.534;2023-01-19T05:24:54;34.65;;;14.35;;
10617;SDS011;5356;43.526;26.534;2023-01-19T05:27:19;31.35;;;13.77;;
10617;SDS011;5356;43.526;26.534;2023-01-19T05:29:45;16.92;;;6.72;;
10617;SDS011;5356;43.526;26.534;2023-01-19T05:32:10;22.77;;;4.38;;
10617;SDS011;5356;43.526;26.534;2023-01-19T05:34:36;22.58;;;6.75;;
10617;SDS011;5356;43.526;26.534;2023-01-19T05:37:01;24.98;;;5.63;;
10617;SDS011;5356;43.526;26.534;2023-01-19T05:39:27;18.50;;;5.78;;
10617;SDS011;5356;43.526;26.534;2023-01-19T05:41:53;19.15;;;7.25;;
10617;SDS011;5356;43.526;26.534;2023-01-19T05:44:18;20.38;;;4.65;;
10617;SDS011;5356;43.526;26.534;2023-01-19T05:46:44;15.95;;;5.07;;
10617;SDS011;5356;43.526;26.534;2023-01-19T05:49:10;14.50;;;4.07;;
10617;SDS011;5356;43.526;26.534;2023-01-19T05:51:37;19.05;;;4.45;;
10617;SDS011;5356;43.526;26.534;2023-01-19T05:54:05;20.23;;;5.50;;
10617;SDS011;5356;43.526;26.534;2023-01-19T05:56:32;18.17;;;3.75;;
10617;SDS011;5356;43.526;26.534;2023-01-19T05:58:59;17.33;;;3.30;;
10617;SDS011;5356;43.526;26.534;2023-01-19T06:01:25;14.48;;;3.28;;
10617;SDS011;5356;43.526;26.534;2023-01-19T06:03:50;21.85;;;4.13;;
10617;SDS011;5356;43.526;26.534;2023-01-19T06:06:16;14.52;;;4.70;;
10617;SDS011;5356;43.526;26.534;2023-01-19T06:08:42;14.93;;;4.50;;
10617;SDS011;5356;43.526;26.534;2023-01-19T06:11:08;20.08;;;3.92;;
10617;SDS011;5356;43.526;26.534;2023-01-19T06:13:34;14.75;;;3.83;;
10617;SDS011;5356;43.526;26.534;2023-01-19T06:16:00;23.13;;;4.35;;
10617;SDS011;5356;43.526;26.534;2023-01-19T06:18:26;26.90;;;6.32;;
10617;SDS011;5356;43.526;26.534;2023-01-19T06:20:53;14.55;;;3.50;;
10617;SDS011;5356;43.526;26.534;2023-01-19T06:23:26;19.10;;;6.35;;
10617;SDS011;5356;43.526;26.534;2023-01-19T06:25:54;20.48;;;4.80;;
10617;SDS011;5356;43.526;26.534;2023-01-19T06:28:20;15.25;;;4.97;;
10617;SDS011;5356;43.526;26.534;2023-01-19T06:30:49;17.50;;;5.93;;
10617;SDS011;5356;43.526;26.534;2023-01-19T06:33:16;20.00;;;5.22;;
10617;SDS011;5356;43.526;26.534;2023-01-19T06:35:43;22.08;;;5.13;;
10617;SDS011;5356;43.526;26.534;2023-01-19T06:38:12;20.30;;;4.15;;
10617;SDS011;5356;43.526;26.534;2023-01-19T06:40:41;13.07;;;3.90;;
10617;SDS011;5356;43.526;26.534;2023-01-19T06:43:07;25.17;;;4.95;;
10617;SDS011;5356;43.526;26.534;2023-01-19T06:45:33;22.65;;;4.65;;
10617;SDS011;5356;43.526;26.534;2023-01-19T06:47:58;22.50;;;4.47;;
10617;SDS011;5356;43.526;26.534;2023-01-19T06:50:24;16.52;;;4.90;;
10617;SDS011;5356;43.526;26.534;2023-01-19T06:52:50;17.05;;;4.57;;
10617;SDS011;5356;43.526;26.534;2023-01-19T06:55:16;26.00;;;5.15;;
10617;SDS011;5356;43.526;26.534;2023-01-19T06:57:41;16.02;;;3.65;;
10617;SDS011;5356;43.526;26.534;2023-01-19T07:00:08;17.25;;;4.63;;
10617;SDS011;5356;43.526;26.534;2023-01-19T07:02:35;26.85;;;9.70;;
10617;SDS011;5356;43.526;26.534;2023-01-19T07:05:01;23.67;;;6.40;;
10617;SDS011;5356;43.526;26.534;2023-01-19T07:07:27;23.77;;;6.80;;
10617;SDS011;5356;43.526;26.534;2023-01-19T07:09:52;25.73;;;7.05;;
10617;SDS011;5356;43.526;26.534;2023-01-19T07:12:18;28.58;;;6.95;;
10617;SDS011;5356;43.526;26.534;2023-01-19T07:14:43;38.67;;;9.75;;
10617;SDS011;5356;43.526;26.534;2023-01-19T07:17:09;19.08;;;6.15;;
10617;SDS011;5356;43.526;26.534;2023-01-19T07:19:35;25.55;;;7.93;;
10617;SDS011;5356;43.526;26.534;2023-01-19T07:22:00;31.58;;;9.90;;
10617;SDS011;5356;43.526;26.534;2023-01-19T07:24:27;27.98;;;8.20;;
10617;SDS011;5356;43.526;26.534;2023-01-19T07:26:54;24.38;;;9.52;;
10617;SDS011;5356;43.526;26.534;2023-01-19T07:29:20;20.02;;;5.32;;
10617;SDS011;5356;43.526;26.534;2023-01-19T07:31:45;20.13;;;4.05;;
10617;SDS011;5356;43.526;26.534;2023-01-19T07:34:12;20.60;;;5.88;;
10617;SDS011;5356;43.526;26.534;2023-01-19T07:36:39;16.80;;;3.70;;
10617;SDS011;5356;43.526;26.534;2023-01-19T07:39:04;20.90;;;5.05;;
10617;SDS011;5356;43.526;26.534;2023-01-19T07:41:30;12.38;;;3.78;;
10617;SDS011;5356;43.526;26.534;2023-01-19T07:43:55;21.00;;;5.32;;
10617;SDS011;5356;43.526;26.534;2023-01-19T07:46:21;10.35;;;3.22;;
10617;SDS011;5356;43.526;26.534;2023-01-19T07:48:46;17.35;;;3.92;;
10617;SDS011;5356;43.526;26.534;2023-01-19T07:51:12;19.10;;;4.15;;
10617;SDS011;5356;43.526;26.534;2023-01-19T07:53:42;18.33;;;4.20;;
10617;SDS011;5356;43.526;26.534;2023-01-19T07:56:08;15.75;;;3.50;;
10617;SDS011;5356;43.526;26.534;2023-01-19T07:58:34;11.95;;;3.83;;
10617;SDS011;5356;43.526;26.534;2023-01-19T08:00:59;18.02;;;3.17;;
10617;SDS011;5356;43.526;26.534;2023-01-19T08:03:25;14.70;;;3.47;;
10617;SDS011;5356;43.526;26.534;2023-01-19T08:05:51;18.05;;;4.68;;
10617;SDS011;5356;43.526;26.534;2023-01-19T08:08:17;19.77;;;4.93;;
10617;SDS011;5356;43.526;26.534;2023-01-19T08:10:43;17.38;;;4.07;;
10617;SDS011;5356;43.526;26.534;2023-01-19T08:13:09;13.38;;;3.30;;
10617;SDS011;5356;43.526;26.534;2023-01-19T08:15:34;13.20;;;3.42;;
10617;SDS011;5356;43.526;26.534;2023-01-19T08:18:00;19.35;;;3.90;;
10617;SDS011;5356;43.526;26.534;2023-01-19T08:20:29;15.02;;;3.33;;
10617;SDS011;5356;43.526;26.534;2023-01-19T08:22:55;19.20;;;3.58;;
10617;SDS011;5356;43.526;26.534;2023-01-19T08:25:34;19.98;;;4.60;;
10617;SDS011;5356;43.526;26.534;2023-01-19T08:28:02;15.85;;;4.32;;
10617;SDS011;5356;43.526;26.534;2023-01-19T08:30:29;21.25;;;4.07;;
10617;SDS011;5356;43.526;26.534;2023-01-19T08:32:55;16.75;;;3.42;;
10617;SDS011;5356;43.526;26.534;2023-01-19T08:35:28;13.35;;;3.67;;
10617;SDS011;5356;43.526;26.534;2023-01-19T08:37:57;20.48;;;3.88;;
10617;SDS011;5356;43.526;26.534;2023-01-19T08:40:28;11.10;;;2.45;;
10617;SDS011;5356;43.526;26.534;2023-01-19T08:43:05;13.88;;;3.63;;
10617;SDS011;5356;43.526;26.534;2023-01-19T08:45:33;18.92;;;3.15;;
10617;SDS011;5356;43.526;26.534;2023-01-19T08:48:00;23.30;;;3.67;;
10617;SDS011;5356;43.526;26.534;2023-01-19T08:50:29;17.77;;;3.67;;
10617;SDS011;5356;43.526;26.534;2023-01-19T08:52:56;28.13;;;9.43;;
10617;SDS011;5356;43.526;26.534;2023-01-19T08:55:23;20.42;;;5.60;;
10617;SDS011;5356;43.526;26.534;2023-01-19T08:57:50;22.30;;;4.70;;
10617;SDS011;5356;43.526;26.534;2023-01-19T09:00:21;18.95;;;5.53;;
10617;SDS011;5356;43.526;26.534;2023-01-19T09:02:47;15.63;;;3.35;;
10617;SDS011;5356;43.526;26.534;2023-01-19T09:05:13;17.15;;;4.57;;
10617;SDS011;5356;43.526;26.534;2023-01-19T09:07:38;17.02;;;4.10;;
10617;SDS011;5356;43.526;26.534;2023-01-19T09:10:04;25.23;;;4.70;;
10617;SDS011;5356;43.526;26.534;2023-01-19T09:12:30;18.35;;;3.30;;
10617;SDS011;5356;43.526;26.534;2023-01-19T09:14:56;20.27;;;5.05;;
10617;SDS011;5356;43.526;26.534;2023-01-19T09:17:21;17.58;;;4.03;;
10617;SDS011;5356;43.526;26.534;2023-01-19T09:19:47;25.60;;;4.65;;
10617;SDS011;5356;43.526;26.534;2023-01-19T09:22:12;28.52;;;5.63;;
10617;SDS011;5356;43.526;26.534;2023-01-19T09:24:38;18.60;;;3.63;;
10617;SDS011;5356;43.526;26.534;2023-01-19T09:27:03;17.50;;;3.22;;
10617;SDS011;5356;43.526;26.534;2023-01-19T09:29:29;20.58;;;3.92;;
10617;SDS011;5356;43.526;26.534;2023-01-19T09:31:54;20.08;;;4.68;;
10617;SDS011;5356;43.526;26.534;2023-01-19T09:34:21;15.30;;;3.60;;
10617;SDS011;5356;43.526;26.534;2023-01-19T09:36:49;19.38;;;3.97;;
10617;SDS011;5356;43.526;26.534;2023-01-19T09:39:15;19.00;;;5.15;;
10617;SDS011;5356;43.526;26.534;2023-01-19T09:41:41;19.90;;;3.35;;
10617;SDS011;5356;43.526;26.534;2023-01-19T09:44:16;13.25;;;3.72;;
10617;SDS011;5356;43.526;26.534;2023-01-19T09:46:50;21.05;;;3.95;;
10617;SDS011;5356;43.526;26.534;2023-01-19T09:49:26;21.15;;;5.07;;
10617;SDS011;5356;43.526;26.534;2023-01-19T09:51:58;14.75;;;3.60;;
10617;SDS011;5356;43.526;26.534;2023-01-19T09:56:58;15.90;;;3.30;;
10617;SDS011;5356;43.526;26.534;2023-01-19T09:59:24;13.43;;;3.40;;
10617;SDS011;5356;43.526;26.534;2023-01-19T10:15:28;14.30;;;2.70;;
10617;SDS011;5356;43.526;26.534;2023-01-19T10:18:09;14.52;;;3.40;;
10617;SDS011;5356;43.526;26.534;2023-01-19T10:21:03;12.57;;;2.63;;
10617;SDS011;5356;43.526;26.534;2023-01-19T10:23:42;15.93;;;3.45;;
10617;SDS011;5356;43.526;26.534;2023-01-19T10:26:25;15.60;;;4.13;;
10617;SDS011;5356;43.526;26.534;2023-01-19T10:29:10;22.65;;;3.88;;
10617;SDS011;5356;43.526;26.534;2023-01-19T10:31:36;17.35;;;3.92;;
10617;SDS011;5356;43.526;26.534;2023-01-19T10:34:04;16.95;;;4.00;;
10617;SDS011;5356;43.526;26.534;2023-01-19T10:36:34;34.03;;;4.90;;
10617;SDS011;5356;43.526;26.534;2023-01-19T10:39:02;20.33;;;4.38;;
10617;SDS011;5356;43.526;26.534;2023-01-19T10:41:33;15.82;;;3.28;;
10617;SDS011;5356;43.526;26.534;2023-01-19T10:44:08;13.98;;;3.95;;
10617;SDS011;5356;43.526;26.534;2023-01-19T10:46:41;13.15;;;2.78;;
10617;SDS011;5356;43.526;26.534;2023-01-19T10:49:26;11.38;;;3.28;;
10617;SDS011;5356;43.526;26.534;2023-01-19T10:51:54;8.48;;;3.22;;
10617;SDS011;5356;43.526;26.534;2023-01-19T10:54:21;14.82;;;5.20;;
10617;SDS011;5356;43.526;26.534;2023-01-19T10:56:55;22.52;;;8.05;;
10617;SDS011;5356;43.526;26.534;2023-01-19T10:59:34;25.58;;;9.90;;
10617;SDS011;5356;43.526;26.534;2023-01-19T11:02:21;23.58;;;8.05;;
10617;SDS011;5356;43.526;26.534;2023-01-19T11:04:51;26.38;;;8.93;;
10617;SDS011;5356;43.526;26.534;2023-01-19T11:10:09;22.65;;;6.63;;
10617;SDS011;5356;43.526;26.534;2023-01-19T11:12:38;24.58;;;7.82;;
10617;SDS011;5356;43.526;26.534;2023-01-19T11:15:11;16.73;;;4.07;;
10617;SDS011;5356;43.526;26.534;2023-01-19T11:17:38;21.50;;;8.52;;
10617;SDS011;5356;43.526;26.534;2023-01-19T11:20:17;20.55;;;8.82;;
10617;SDS011;5356;43.526;26.534;2023-01-19T11:22:43;13.98;;;4.75;;
10617;SDS011;5356;43.526;26.534;2023-01-19T11:25:18;31.80;;;11.82;;
10617;SDS011;5356;43.526;26.534;2023-01-19T11:27:47;18.05;;;4.30;;
10617;SDS011;5356;43.526;26.534;2023-01-19T11:30:19;22.88;;;8.10;;
10617;SDS011;5356;43.526;26.534;2023-01-19T11:32:48;18.42;;;6.20;;
10617;SDS011;5356;43.526;26.534;2023-01-19T11:38:06;13.85;;;3.40;;
10617;SDS011;5356;43.526;26.534;2023-01-19T11:40:38;13.68;;;3.72;;
10617;SDS011;5356;43.526;26.534;2023-01-19T11:43:04;9.57;;;2.75;;
10617;SDS011;5356;43.526;26.534;2023-01-19T11:45:30;13.50;;;3.20;;
10617;SDS011;5356;43.526;26.534;2023-01-19T11:47:58;14.75;;;3.22;;
10617;SDS011;5356;43.526;26.534;2023-01-19T11:50:42;9.82;;;2.83;;
10617;SDS011;5356;43.526;26.534;2023-01-19T11:53:22;14.20;;;3.17;;
10617;SDS011;5356;43.526;26.534;2023-01-19T11:55:57;12.57;;;3.72;;
10617;SDS011;5356;43.526;26.534;2023-01-19T11:58:27;13.15;;;3.38;;
10617;SDS011;5356;43.526;26.534;2023-01-19T12:00:55;12.60;;;2.30;;
10617;SDS011;5356;43.526;26.534;2023-01-19T12:05:56;6.15;;;2.45;;
10617;SDS011;5356;43.526;26.534;2023-01-19T12:08:30;9.48;;;2.40;;
10617;SDS011;5356;43.526;26.534;2023-01-19T12:11:09;9.73;;;2.38;;
10617;SDS011;5356;43.526;26.534;2023-01-19T12:13:40;13.05;;;3.22;;
10617;SDS011;5356;43.526;26.534;2023-01-19T12:16:29;7.45;;;2.75;;
10617;SDS011;5356;43.526;26.534;2023-01-19T12:19:01;19.15;;;6.97;;
10617;SDS011;5356;43.526;26.534;2023-01-19T12:21:30;13.57;;;4.97;;
10617;SDS011;5356;43.526;26.534;2023-01-19T12:26:29;12.80;;;3.25;;
10617;SDS011;5356;43.526;26.534;2023-01-19T12:29:11;13.93;;;3.60;;
10617;SDS011;5356;43.526;26.534;2023-01-19T12:31:39;4.47;;;2.22;;
10617;SDS011;5356;43.526;26.534;2023-01-19T12:36:55;14.07;;;2.97;;
10617;SDS011;5356;43.526;26.534;2023-01-19T12:39:26;8.55;;;3.10;;
10617;SDS011;5356;43.526;26.534;2023-01-19T12:44:41;13.23;;;2.85;;
10617;SDS011;5356;43.526;26.534;2023-01-19T12:54:47;13.65;;;2.60;;
10617;SDS011;5356;43.526;26.534;2023-01-19T12:57:18;11.35;;;2.50;;
10617;SDS011;5356;43.526;26.534;2023-01-19T12:59:53;6.82;;;2.35;;
10617;SDS011;5356;43.526;26.534;2023-01-19T13:13:27;8.77;;;2.72;;
10617;SDS011;5356;43.526;26.534;2023-01-19T13:15:55;10.65;;;3.10;;
10617;SDS011;5356;43.526;26.534;2023-01-19T13:18:25;9.63;;;3.00;;
10617;SDS011;5356;43.526;26.534;2023-01-19T13:26:23;11.55;;;2.53;;
10617;SDS011;5356;43.526;26.534;2023-01-19T13:28:54;6.60;;;2.08;;
10617;SDS011;5356;43.526;26.534;2023-01-19T13:31:32;8.32;;;3.13;;
10617;SDS011;5356;43.526;26.534;2023-01-19T13:33:59;8.52;;;2.40;;
10617;SDS011;5356;43.526;26.534;2023-01-19T13:36:45;9.32;;;2.22;;
10617;SDS011;5356;43.526;26.534;2023-01-19T13:41:46;8.30;;;1.90;;
10617;SDS011;5356;43.526;26.534;2023-01-19T13:44:17;9.32;;;2.05;;
10617;SDS011;5356;43.526;26.534;2023-01-19T13:46:47;8.77;;;2.08;;
10617;SDS011;5356;43.526;26.534;2023-01-19T13:52:19;6.45;;;1.98;;
10617;SDS011;5356;43.526;26.534;2023-01-19T13:55:00;8.30;;;1.85;;
10617;SDS011;5356;43.526;26.534;2023-01-19T13:57:28;6.40;;;1.73;;
10617;SDS011;5356;43.526;26.534;2023-01-19T14:05:51;9.10;;;2.53;;
10617;SDS011;5356;43.526;26.534;2023-01-19T14:08:18;12.07;;;2.83;;
10617;SDS011;5356;43.526;26.534;2023-01-19T14:10:47;6.90;;;2.35;;
10617;SDS011;5356;43.526;26.534;2023-01-19T14:13:33;5.75;;;2.50;;
10617;SDS011;5356;43.526;26.534;2023-01-19T14:16:05;8.77;;;1.77;;
10617;SDS011;5356;43.526;26.534;2023-01-19T14:18:33;5.80;;;1.92;;
10617;SDS011;5356;43.526;26.534;2023-01-19T14:23:39;7.60;;;2.30;;
10617;SDS011;5356;43.526;26.534;2023-01-19T14:29:26;5.47;;;1.67;;
10617;SDS011;5356;43.526;26.534;2023-01-19T14:34:47;7.57;;;1.65;;
10617;SDS011;5356;43.526;26.534;2023-01-19T14:37:25;8.40;;;2.80;;
10617;SDS011;5356;43.526;26.534;2023-01-19T14:45:27;4.03;;;2.35;;
10617;SDS011;5356;43.526;26.534;2023-01-19T14:47:58;7.22;;;2.53;;
10617;SDS011;5356;43.526;26.534;2023-01-19T14:50:31;8.57;;;2.72;;
10617;SDS011;5356;43.526;26.534;2023-01-19T14:53:03;11.52;;;2.55;;
10617;SDS011;5356;43.526;26.534;2023-01-19T14:55:34;7.90;;;2.33;;
10617;SDS011;5356;43.526;26.534;2023-01-19T15:00:35;5.50;;;3.03;;
10617;SDS011;5356;43.526;26.534;2023-01-19T15:03:00;11.63;;;4.03;;
10617;SDS011;5356;43.526;26.534;2023-01-19T15:05:26;7.88;;;2.47;;
10617;SDS011;5356;43.526;26.534;2023-01-19T15:07:52;8.88;;;2.40;;
10617;SDS011;5356;43.526;26.534;2023-01-19T15:10:21;13.50;;;5.53;;
10617;SDS011;5356;43.526;26.534;2023-01-19T15:12:48;8.88;;;4.43;;
10617;SDS011;5356;43.526;26.534;2023-01-19T15:15:17;22.95;;;9.57;;
10617;SDS011;5356;43.526;26.534;2023-01-19T15:17:50;13.50;;;3.28;;
10617;SDS011;5356;43.526;26.534;2023-01-19T15:20:18;8.23;;;5.30;;
10617;SDS011;5356;43.526;26.534;2023-01-19T15:22:44;8.13;;;4.20;;
10617;SDS011;5356;43.526;26.534;2023-01-19T15:25:14;9.73;;;3.72;;
10617;SDS011;5356;43.526;26.534;2023-01-19T15:27:41;6.05;;;2.95;;
10617;SDS011;5356;43.526;26.534;2023-01-19T15:30:14;9.30;;;3.22;;
10617;SDS011;5356;43.526;26.534;2023-01-19T15:32:48;6.55;;;1.90;;
10617;SDS011;5356;43.526;26.534;2023-01-19T15:35:20;6.60;;;2.80;;
10617;SDS011;5356;43.526;26.534;2023-01-19T15:37:47;6.55;;;3.95;;
10617;SDS011;5356;43.526;26.534;2023-01-19T15:40:14;5.43;;;2.38;;
10617;SDS011;5356;43.526;26.534;2023-01-19T15:42:41;5.72;;;2.70;;
10617;SDS011;5356;43.526;26.534;2023-01-19T15:45:17;5.85;;;2.60;;
10617;SDS011;5356;43.526;26.534;2023-01-19T15:47:53;4.93;;;2.58;;
10617;SDS011;5356;43.526;26.534;2023-01-19T15:50:19;6.57;;;3.17;;
10617;SDS011;5356;43.526;26.534;2023-01-19T15:52:44;5.38;;;2.67;;
10617;SDS011;5356;43.526;26.534;2023-01-19T15:55:10;8.07;;;3.65;;
10617;SDS011;5356;43.526;26.534;2023-01-19T15:57:38;9.88;;;4.03;;
10617;SDS011;5356;43.526;26.534;2023-01-19T16:00:04;6.13;;;2.22;;
10617;SDS011;5356;43.526;26.534;2023-01-19T16:02:31;6.30;;;2.58;;
10617;SDS011;5356;43.526;26.534;2023-01-19T16:04:56;6.68;;;3.08;;
10617;SDS011;5356;43.526;26.534;2023-01-19T16:07:21;11.50;;;3.83;;
10617;SDS011;5356;43.526;26.534;2023-01-19T16:09:47;5.35;;;2.67;;
10617;SDS011;5356;43.526;26.534;2023-01-19T16:12:14;5.22;;;2.40;;
10617;SDS011;5356;43.526;26.534;2023-01-19T16:14:39;7.65;;;1.98;;
10617;SDS011;5356;43.526;26.534;2023-01-19T16:17:05;6.47;;;2.13;;
10617;SDS011;5356;43.526;26.534;2023-01-19T16:19:31;7.53;;;3.80;;
10617;SDS011;5356;43.526;26.534;2023-01-19T16:21:56;8.02;;;3.00;;
10617;SDS011;5356;43.526;26.534;2023-01-19T16:24:22;9.07;;;3.22;;
10617;SDS011;5356;43.526;26.534;2023-01-19T16:26:47;6.88;;;1.77;;
10617;SDS011;5356;43.526;26.534;2023-01-19T16:29:13;4.72;;;2.50;;
10617;SDS011;5356;43.526;26.534;2023-01-19T16:31:39;3.80;;;2.10;;
10617;SDS011;5356;43.526;26.534;2023-01-19T16:34:06;5.60;;;3.00;;